Portada
METAR-TAF:

METAR-TAF

Aeroports :

Chiclayo, Perú

latitud: 06-47S, longitud: 079-50W, altitud: 29 m

Observació

L'informe es va fer fa 1 hora i 5 minuts, a les 02:00 UTC
Vent 10 kt del Sud
Temperatura 23°C
Humitat 69%
Pressió 1012 hPa
Visibilitat 10 km o més
sense núvols per sota de 1500 mi sense presència de cumulonimbus.

METAR: SPHI 190200Z 18010KT CAVOK 23/17 Q1012 RMK BIRD HAZARD RWY 19/01 PP000

Hora: 22:05 (03:05 UTC)

Pronòstic

L'informe es va fer fa 4 hores i 5 minuts, a les 23:00 UTC
Pronòstic vàlid del 19 a les 00 UTC al 19 a les 24 UTC
Vent 15 kt del Sud/Sud-Oest
Visibilitat 10 km o més
sense núvols per sota de 1500 mi sense presència de cumulonimbus.
Evolucionant progressivament
l' 19 a les 03 UTC al 19 a les 06 UTC
Vent 7 kt del Sud
Evolucionant progressivament
l' 19 a les 14 UTC al 19 a les 16 UTC
Vent 17 kt del Sud

TAF: SPHI 182300Z 1900/1924 20015KT CAVOK TX29/1919Z TN19/1911Z BECMG 1903/1906 19007KT BECMG 1914/1916 17017KT

Observacions i pronòstics meteorològics de més de 4000 aeroports (METAR i TAF).

Les estacions disponibles són els punts grocs i vermells al mapa.

Posi el ratolí al punt desitjat per veure el nom de l'estació.

Feu clic per veure les observacions i els pronòstics meteorològics.

Per canviar el mapa: feu clic els botons verds amb una creu de color negre per apropar; al botó verd amb un guió per allunyar la imatge; o en les fletxes verdes per a mapes adjacents.


METAR-TAF: